x

Mid Superior 60nm North Northeast Hancock, Mi (45001) Wave Buoy

11:50pm - Mon 29th Aug 2016 All times are CDT. -5 hours from GMT.

  • Sig Wave height 1.6ft
  • Swell Direction
  • Peak Period 4s
  • Average Period 4s
  • Wind
    9mph, 11mph gusts
  • Sea Temp 62°f
  • Air Temp 64°f
  • Sea Pressure 1017.9mb
  • Mid Superior 60nm North Northeast Hancock, Mi
  • Mid Superior 60nm North Northeast Hancock, Mi

More Historic Weather Station data

Upgrade to MSW Pro to gain access to the past 30 days of data for over 8000 Wavebouys and Weather Stations around the globe.

Join Pro

Comparision Forecast

View Surf forecast
   
Mon 08/29 11:50pm 1.6ft 4s 4s 9 11 mph 1017.9mb 62f 64f
10:50pm 2ft 5s 4s 9
mph
1017.7mb 62f 64f
9:50pm 2ft 5s 4s 7 9 mph 1018.3mb 62f 64f
8:50pm 2.5ft 5s 4s 7 9 mph 1018mb 62f 64f
7:50pm 2.5ft 5s 4s 4 7 mph 1018.4mb 62f 65f
6:50pm 2.5ft 5s 4s 9 11 mph 1018.7mb 62f 65f
5:50pm 2.5ft 5s 4s 7
mph
1019.1mb 62f 65f
4:50pm 2.5ft 5s 4s 7 9 mph 1019.2mb 62f 65f
3:50pm 3ft 6s 4s 9
mph
1019.4mb 62f 65f
2:50pm 3.5ft 6s 5s 11
mph
1019.8mb 62f 64f
1:50pm 3.5ft 5s 4s 11
mph
1019.8mb 62f 65f
12:50pm 3.5ft 5s 4s 11 13 mph 1019.9mb 62f 65f
11:50am 3.5ft 5s 4s 18 22 mph 1020.3mb 62f 65f
10:50am 3.5ft 5s 4s 20 25 mph 1019.6mb 62f 63f
9:50am 2.5ft 4s 4s 20 25 mph 1019.9mb 62f 63f
8:50am 2.5ft 4s 4s 18 20 mph 1021.6mb 62f 63f
7:50am 2ft 4s 3s 18 20 mph 1022mb 62f 63f
6:50am 1.6ft 3s 3s 16 18 mph 1022.5mb 62f 63f
5:50am 1.6ft 3s 3s 16 18 mph 1022.5mb 62f 62f
4:50am 1.3ft 3s 3s 13 16 mph 1022.7mb 62f 62f
3:50am 1ft 2s 3s 13 16 mph 1022.9mb 62f 62f
2:50am 0.7ft  -  3s 13 16 mph 1023.4mb 62f 62f
1:50am 0.3ft  -  3s 11 13 mph 1022.8mb 62f 62f
12:50am 0.3ft  -  3s 7 9 mph 1023.7mb 62f 62f
Sun 08/28 11:50pm 0.3ft  -  3s 7
mph
1024mb 63f 62f
10:50pm 0.7ft  -  3s 7 9 mph 1023.9mb 63f 63f
9:50pm 0.7ft  -  3s 7 9 mph 1023.6mb 63f 63f
8:50pm 0.7ft  -  3s 4 7 mph 1023.3mb 64f 63f
7:50pm 0.7ft  -  3s 4 7 mph 1023mb 64f 63f
6:50pm 0.7ft  -  3s 2
mph
1022.7mb 64f 64f
5:50pm 0.7ft  -  3s 2
mph
1022.6mb 64f 64f
4:50pm 0.7ft  -  3s 2 4 mph 1022.6mb 64f 65f
3:50pm 0.7ft  -  3s 4
mph
1022.6mb 64f 64f
2:50pm 1ft 3s 3s 4 7 mph 1022.8mb 63f 64f
1:50pm 1ft 3s 3s 9 11 mph 1023mb 63f 63f
12:50pm 0.7ft  -  3s 9
mph
1022.5mb 63f 62f
11:50am 1ft 4s 3s 4
mph
1022.3mb 62f 63f
10:50am 1ft 4s 3s 4 7 mph 1021.8mb 62f 62f
9:50am 1ft 4s 3s 9 11 mph 1021.2mb 62f 62f
8:50am 1ft 4s 3s 9 11 mph 1020.7mb 62f 62f
7:50am 1ft 4s 3s 9 11 mph 1020.5mb 62f 63f
6:50am 0.7ft  -  3s 9 11 mph 1019.7mb 62f 62f
5:50am 1ft 4s 3s 9
mph
1019.1mb 62f 62f
4:50am 1ft 4s 4s 2 4 mph 1018.4mb 62f 61f
2:50am 1ft 4s 4s 2 4 mph 1017.8mb 62f 61f
1:50am 1ft 4s 4s 4 7 mph 1017.6mb 62f 61f
12:50am 1.3ft 4s 4s 2 4 mph 1017.9mb 62f 61f
Sat 08/27 11:50pm 1.3ft 4s 3s 4
mph
1017.9mb 62f 61f
9:50pm 1.6ft 3s 3s 7 9 mph 1017.8mb 62f 61f
8:50pm 1.6ft 4s 3s 11 13 mph 1018mb 62f 61f
7:50pm 1.6ft 4s 3s 13 16 mph 1018mb 62f 61f
6:50pm 1.3ft 3s 3s 16 18 mph 1017.6mb 62f 61f
5:50pm 1.3ft 3s 3s 11 16 mph 1018.6mb 62f 61f
4:50pm 1.3ft 4s 3s 11 13 mph 1019mb 62f 61f
3:50pm 1.3ft 3s 3s 11 13 mph 1019.1mb 62f 61f
2:50pm 1ft 3s 3s 13 16 mph 1019.1mb 62f 61f
1:50pm 1ft 3s 3s 11 13 mph 1019.5mb 62f 61f
12:50pm 1ft 3s 3s 13 16 mph 1019.8mb 62f 61f
11:50am 1ft 3s 3s 11 13 mph 1020.4mb 62f 61f
10:50am 1ft 3s 3s 13 16 mph 1020.7mb 62f 61f
9:50am 0.7ft  -  3s 11 13 mph 1020.9mb 62f 61f
8:50am 0.7ft  -  3s 11 13 mph 1021.2mb 62f 61f
7:50am 0.7ft  -  3s 11 13 mph 1021.4mb 62f 60f
6:50am 0.7ft  -  3s 11 13 mph 1021.3mb 62f 60f
5:50am 0.7ft  -  3s 11
mph
1021mb 62f 60f
4:50am 0.7ft  -  3s 9 11 mph 1021.1mb 62f 60f
3:50am 0.7ft  -  3s 9 11 mph 1021.1mb 62f 61f
2:50am 0.7ft  -  3s 9 11 mph 1021mb 62f 61f
1:50am 1ft 4s 3s 4
mph
1021mb 62f 61f
12:50am 1ft 3s 3s 2 4 mph 1021.4mb 62f 62f
Fri 08/26 11:50pm 1ft 4s 3s 4 7 mph 1021.3mb 62f 62f
10:50pm 1ft 4s 3s 7 9 mph 1020.9mb 62f 62f
9:50pm 1ft 4s 3s 9 11 mph 1020.9mb 62f 62f
8:50pm 1ft 4s 3s 9 11 mph 1020.8mb 63f 61f
7:50pm 1ft 5s 4s 11 13 mph 1020.5mb 63f 61f
6:50pm 1ft 5s 4s 9
mph
1020.7mb 63f 61f
5:50pm 1.3ft 5s 4s 9 11 mph 1021mb 64f 61f
4:50pm 1.3ft 5s 4s 9
mph
1020.6mb 64f 61f
3:50pm 1.6ft 5s 4s 7 9 mph 1020.4mb 64f 60f
2:50pm 1.6ft 5s 4s 2 4 mph 1020.5mb 64f 61f
1:50pm 2ft 5s 4s 4 7 mph 1020.5mb 63f 60f
12:50pm 2ft 6s 4s 2 4 mph 1020.4mb 62f 59f
11:50am 2.5ft 6s 4s 2 4 mph 1020.9mb 62f 59f
10:50am 3ft 6s 4s 9 11 mph 1020.3mb 62f 58f
9:50am 3ft 6s 4s 9 11 mph 1019.9mb 62f 58f
8:50am 3.5ft 6s 5s 11 13 mph 1019.1mb 62f 59f
7:50am 3.5ft 6s 5s 11 13 mph 1018.5mb 62f 59f
6:50am 4ft 7s 5s 13 16 mph 1017.6mb 62f 59f